Latest Weather Observations for Sydney - Observatory Hill

IDN60801

Issued at 1:13 pm EDT Friday 4 December 2020 (issued every 10 minutes, with the page automatically refreshed every 10 minutes)

About weather observations | Map of weather stations | Latest weather observations for NSW | Other Formats
Station Details ID: 066214 Name: SYDNEY (OBSERVATORY HILL) Lat: -33.86 Lon: 151.20 Height: 43.37 m
Data from the previous 72 hours. | See also: Recent months at Sydney - Observatory Hill

* Apparent temperature (App Temp) for Sydney - Observatory Hill is calculated using temperature observations collected at Sydney - Observatory Hill and wind observations collected at Fort Denison, as wind observations are not currently provided for Sydney - Observatory Hill.

Date/Time
EDT
Temp
°C
App
Temp
°C
Dew
Point
°C
Rel
Hum
%
Delta-T
°C
Wind Press
QNH
hPa
Press
MSL
hPa
Rain since
9am
mm
Dir  Spd
km/h
Gust
km/h
Spd
kts
Gust
kts
04/01:00pm 25.1 23.0 18.1 65 4.4 E 26 - 14 - 1012.4 1012.2 0.0
04/12:30pm 28.6 26.6 18.4 54 6.5 E 26 - 14 - 1012.8 1012.6 0.0
04/12:00pm 29.1 29.2 19.1 54 6.5 E 17 - 9 - 1013.4 1013.2 0.0
04/11:30am 27.4 27.0 18.1 57 5.9 E 17 - 9 - 1013.8 1013.6 0.0
04/11:00am 26.9 26.1 18.5 60 5.4 ESE 20 - 11 - 1014.4 1014.2 0.0
04/10:30am 27.1 27.2 19.2 62 5.1 ESE 17 - 9 - 1014.6 1014.4 0.0
04/10:00am 25.1 27.3 18.3 66 4.3 ENE 4 - 2 - 1014.9 1014.7 0.0
04/09:30am 23.9 27.2 19.2 75 3.0 CALM 0 - 0 - 1015.2 1015.0 0.0
04/09:00am 23.0 25.3 19.4 80 2.3 NW 6 - 3 - 1015.3 1015.1 0.0
04/08:30am 21.5 23.1 18.3 82 2.0 SSW 7 - 4 - 1015.7 1015.5 0.0
04/08:00am 20.5 22.1 17.9 85 1.6 SSW 6 - 3 - 1015.5 1015.3 0.0
04/07:30am 20.1 21.2 18.1 88 1.2 SSW 9 - 5 - 1015.2 1015.0 0.0
04/07:00am 19.6 20.7 17.9 90 1.0 SSW 9 - 5 - 1014.7 1014.5 0.0
04/06:30am 19.4 20.2 18.1 92 0.8 W 11 - 6 - 1014.4 1014.2 0.0
04/06:00am 19.1 19.9 18.1 94 0.6 WNW 11 - 6 - 1014.1 1013.9 0.0
04/05:30am 19.0 20.6 18.2 95 0.5 WNW 7 - 4 - 1014.0 1013.8 0.0
04/05:00am 18.7 20.2 18.0 96 0.4 WNW 7 - 4 - 1014.0 1013.8 0.0
04/04:30am 18.6 19.7 17.9 96 0.4 W 9 - 5 - 1014.0 1013.8 0.0
04/04:00am 18.7 19.4 17.9 95 0.5 W 11 - 6 - 1014.2 1014.0 0.0
04/03:30am 18.8 20.2 17.8 94 0.6 WNW 7 - 4 - 1014.3 1014.1 0.0
04/03:00am 18.9 20.3 17.7 93 0.7 WNW 7 - 4 - 1014.6 1014.4 0.0
04/02:30am 19.2 20.8 17.9 92 0.8 W 6 - 3 - 1014.8 1014.6 0.0
04/02:00am 19.5 21.2 18.0 91 0.9 WNW 6 - 3 - 1015.4 1015.2 0.0
04/01:30am 19.9 21.6 18.6 92 0.8 W 7 - 4 - 1016.0 1015.8 0.0
04/01:00am 20.0 22.4 18.7 92 0.8 NNW 4 - 2 - 1016.4 1016.2 0.0
04/12:30am 20.0 22.4 18.8 93 0.8 N 4 - 2 - 1016.9 1016.7 0.0
04/12:00am 20.0 22.0 18.7 92 0.8 NNW 6 - 3 - 1017.0 1016.8 0.0
 
Date/Time
EDT
Temp
°C
App
Temp
°C
Dew
Point
°C
Rel
Hum
%
Delta-T
°C
Wind Press
QNH
hPa
Press
MSL
hPa
Rain since
9am
mm
Dir  Spd
km/h
Gust
km/h
Spd
kts
Gust
kts
03/11:30pm 19.9 22.5 18.4 91 0.9 NNE 2 - 1 - 1017.2 1017.0 0.0
03/11:00pm 20.1 21.6 18.8 92 0.8 NNE 9 - 5 - 1017.4 1017.2 0.0
03/10:30pm 20.1 21.5 18.6 91 0.9 N 9 - 5 - 1017.6 1017.4 0.0
03/10:00pm 20.0 21.4 18.7 92 0.8 N 9 - 5 - 1017.8 1017.6 0.0
03/09:30pm 20.0 20.9 18.5 91 0.9 NNE 11 - 6 - 1018.0 1017.8 0.0
03/09:00pm 20.0 19.7 18.3 90 1.1 NNE 17 - 9 - 1018.3 1018.1 0.0
03/08:30pm 20.3 20.3 18.1 87 1.4 NNE 15 - 8 - 1018.5 1018.3 0.0
03/08:00pm 20.6 19.6 17.6 83 1.8 NNE 19 - 10 - 1018.4 1018.2 0.0
03/07:30pm 20.7 21.2 17.5 82 2.0 NE 11 - 6 - 1018.4 1018.2 0.0
03/07:00pm 20.9 20.9 17.3 80 2.2 NE 13 - 7 - 1018.0 1017.8 0.0
03/06:30pm 20.9 20.1 17.1 79 2.3 NNE 17 - 9 - 1018.5 1018.3 0.0
03/06:00pm 20.9 20.1 17.1 79 2.3 NE 17 - 9 - 1018.3 1018.1 0.0
03/05:30pm 20.9 20.9 17.3 80 2.2 NE 13 - 7 - 1018.2 1018.0 0.0
03/05:00pm 21.2 20.9 17.4 79 2.3 NE 15 - 8 - 1018.2 1018.0 0.0
03/04:30pm 20.9 20.3 17.5 81 2.1 NE 17 - 9 - 1018.8 1018.6 0.0
03/04:00pm 20.8 20.0 17.2 80 2.2 NE 17 - 9 - 1019.3 1019.1 0.0
03/03:30pm 20.7 20.3 17.1 80 2.2 NE 15 - 8 - 1019.6 1019.4 0.0
03/03:00pm 20.7 19.2 16.7 78 2.4 NE 20 - 11 - 1019.7 1019.5 0.0
03/02:30pm 20.9 19.0 16.7 77 2.6 NE 22 - 12 - 1020.1 1019.9 0.0
03/02:00pm 21.3 19.8 16.7 75 2.8 NE 20 - 11 - 1020.3 1020.1 0.0
03/01:30pm 21.3 19.6 16.3 73 3.0 NNE 20 - 11 - 1020.8 1020.6 0.0
03/01:00pm 21.6 20.2 16.6 73 3.0 NNE 19 - 10 - 1021.5 1021.3 0.0
03/12:30pm 21.4 20.3 16.4 73 3.0 NE 17 - 9 - 1021.8 1021.7 0.0
03/12:00pm 21.0 20.0 16.6 76 2.7 ENE 17 - 9 - 1022.2 1022.1 0.0
03/11:30am 21.3 19.8 16.7 75 2.8 ENE 20 - 11 - 1022.0 1021.9 0.0
03/11:00am 21.1 19.6 16.3 74 2.9 NE 19 - 10 - 1022.5 1022.4 0.0
03/10:30am 20.7 19.0 15.7 73 3.0 NE 19 - 10 - 1023.0 1022.9 0.0
03/10:00am 20.7 19.5 15.0 70 3.3 NE 15 - 8 - 1023.2 1023.1 0.0
03/09:30am 20.8 19.4 15.6 72 3.1 NE 17 - 9 - 1022.8 1022.7 0.0
03/09:00am 20.5 19.3 15.1 71 3.2 ENE 15 - 8 - 1022.9 1022.8 0.6
03/08:30am 20.3 19.2 15.3 73 3.0 ENE 15 - 8 - 1023.1 1023.0 0.6
03/08:00am 20.1 18.9 15.1 73 2.9 ENE 15 - 8 - 1022.9 1022.8 0.6
03/07:30am 19.7 18.8 14.9 74 2.8 ENE 13 - 7 - 1023.1 1023.0 0.6
03/07:00am 19.4 17.9 15.3 77 2.4 ENE 17 - 9 - 1022.7 1022.6 0.6
03/06:30am 19.3 17.6 14.8 75 2.6 E 17 - 9 - 1022.7 1022.6 0.6
03/06:00am 19.1 17.4 14.6 75 2.6 ENE 17 - 9 - 1022.7 1022.6 0.6
03/05:30am 19.1 17.0 14.8 76 2.5 E 19 - 10 - 1022.1 1022.0 0.6
03/05:00am 19.0 16.9 14.7 76 2.5 E 19 - 10 - 1022.3 1022.2 0.6
03/04:30am 18.9 16.8 14.6 76 2.5 E 19 - 10 - 1022.4 1022.3 0.6
03/04:00am 19.0 16.9 15.1 78 2.3 E 20 - 11 - 1022.4 1022.3 0.6
03/03:30am 19.0 17.1 15.1 78 2.3 E 19 - 10 - 1022.5 1022.4 0.6
03/03:00am 18.7 17.2 15.2 80 2.0 E 17 - 9 - 1022.6 1022.5 0.6
03/02:30am 18.4 18.0 15.1 81 1.9 SE 11 - 6 - 1023.2 1023.1 0.6
03/02:00am 17.9 18.0 15.5 86 1.4 SSE 9 - 5 - 1023.5 1023.4 0.4
03/01:30am 17.7 18.2 15.5 87 1.3 SE 7 - 4 - 1023.7 1023.6 0.4
03/01:00am 17.5 16.9 15.7 89 1.1 SE 13 - 7 - 1024.6 1024.5 0.4
03/12:30am 17.3 16.8 15.8 91 0.9 ESE 13 - 7 - 1025.5 1025.4 0.4
03/12:00am 17.3 15.4 15.8 91 0.9 ESE 20 - 11 - 1025.4 1025.3 0.4
 
Date/Time
EDT
Temp
°C
App
Temp
°C
Dew
Point
°C
Rel
Hum
%
Delta-T
°C
Wind Press
QNH
hPa
Press
MSL
hPa
Rain since
9am
mm
Dir  Spd
km/h
Gust
km/h
Spd
kts
Gust
kts
02/11:30pm 17.3 15.5 16.0 92 0.8 ESE 20 - 11 - 1025.4 1025.3 0.4
02/11:00pm 17.5 15.8 15.8 90 1.0 SE 19 - 10 - 1025.7 1025.6 0.4
02/10:30pm 17.8 16.2 16.1 90 1.0 ESE 19 - 10 - 1025.2 1025.1 0.2
02/10:00pm 18.0 17.1 15.8 87 1.3 SE 15 - 8 - 1025.0 1024.9 0.2
02/09:30pm 18.8 16.9 15.3 80 2.1 E 19 - 10 - 1024.7 1024.6 0.0
02/09:00pm 19.0 16.5 15.1 78 2.3 ESE 22 - 12 - 1024.0 1023.9 0.0
02/08:30pm 19.4 16.3 14.6 74 2.8 ESE 24 - 13 - 1023.1 1023.0 0.0
02/08:00pm 19.2 15.9 15.1 77 2.4 ESE 26 - 14 - 1022.7 1022.6 0.0
02/07:30pm 19.3 16.1 15.2 77 2.4 ESE 26 - 14 - 1022.6 1022.5 0.0
02/07:00pm 20.0 17.1 15.0 73 2.9 ESE 24 - 13 - 1022.0 1021.9 0.0
02/06:30pm 20.1 18.0 15.1 73 2.9 ESE 20 - 11 - 1022.0 1021.9 0.0
02/06:00pm 20.3 18.2 15.3 73 2.9 ESE 20 - 11 - 1021.7 1021.5 0.0
02/05:30pm 20.4 18.9 15.2 72 3.1 ESE 17 - 9 - 1021.9 1021.8 0.0
02/05:00pm 20.5 17.7 15.3 72 3.1 ESE 24 - 13 - 1020.6 1020.4 0.0
02/04:30pm 20.7 18.8 15.3 71 3.2 ESE 19 - 10 - 1021.1 1020.9 0.0
02/04:00pm 21.0 18.9 15.1 69 3.5 ESE 20 - 11 - 1020.6 1020.4 0.0
02/03:30pm 21.6 19.6 15.0 66 3.9 ESE 19 - 10 - 1020.2 1020.0 0.0
02/03:00pm 21.2 18.8 15.5 70 3.4 ESE 22 - 12 - 1019.6 1019.4 0.0
02/02:30pm 20.9 18.9 15.0 69 3.5 ESE 19 - 10 - 1020.0 1019.8 0.0
02/02:00pm 22.1 19.4 15.7 67 3.8 ESE 24 - 13 - 1020.0 1019.8 0.0
02/01:30pm 22.4 20.4 15.5 65 4.1 SE 20 - 11 - 1020.2 1020.0 0.0
02/01:00pm 22.7 20.6 16.3 67 3.9 SSE 22 - 12 - 1019.8 1019.6 0.0
02/12:30pm 22.4 20.5 15.7 66 4.0 SSE 20 - 11 - 1019.9 1019.7 0.0
02/12:00pm 22.6 20.8 15.9 66 4.0 SE 20 - 11 - 1019.7 1019.5 0.0
02/11:30am 23.1 20.7 16.4 66 4.1 SSE 24 - 13 - 1019.5 1019.3 0.0
02/11:00am 23.0 20.8 17.0 69 3.7 SSE 24 - 13 - 1019.5 1019.3 0.0
02/10:30am 21.9 19.7 16.0 69 3.6 SE 22 - 12 - 1019.7 1019.5 0.0
02/10:00am 22.1 20.2 16.8 72 3.2 SE 22 - 12 - 1019.3 1019.1 0.0
02/09:30am 21.4 19.3 16.1 72 3.2 SSE 22 - 12 - 1019.1 1018.9 0.0
02/09:00am 21.6 18.2 16.8 74 2.9 SSE 30 - 16 - 1018.9 1018.7 6.8
02/08:30am 21.1 18.4 16.5 75 2.8 SSE 26 - 14 - 1018.5 1018.3 6.8
02/08:00am 20.6 19.4 17.4 82 2.0 SSE 20 - 11 - 1017.6 1017.4 6.8
02/07:30am 20.2 18.6 17.4 84 1.7 S 22 - 12 - 1017.0 1016.8 6.8
02/07:00am 19.8 18.5 17.2 85 1.6 S 20 - 11 - 1016.3 1016.1 6.8
02/06:30am 19.3 17.5 16.9 86 1.5 S 22 - 12 - 1015.6 1015.4 6.8
02/06:00am 19.1 17.3 16.9 87 1.3 S 22 - 12 - 1014.9 1014.7 6.8
02/05:30am 19.1 16.8 16.7 86 1.4 S 24 - 13 - 1014.4 1014.2 6.8
02/05:00am 19.2 16.7 17.2 88 1.2 S 26 - 14 - 1013.7 1013.5 6.8
02/04:30am 19.3 16.9 17.4 89 1.2 S 26 - 14 - 1013.0 1012.8 6.8
02/04:00am 19.4 15.8 17.7 90 1.0 S 33 - 18 - 1012.6 1012.4 6.8
02/03:30am 19.7 16.3 18.2 91 0.9 SSW 33 - 18 - 1012.1 1011.9 6.8
02/03:00am 21.0 18.6 19.1 89 1.2 SSW 30 - 16 - 1011.8 1011.6 6.8
02/02:30am 22.2 22.5 21.5 96 0.5 W 22 - 12 - 1010.9 1010.7 6.8
02/02:00am 22.3 23.6 21.6 96 0.5 W 17 - 9 - 1010.7 1010.5 6.8
02/01:30am 22.3 23.4 21.3 94 0.7 W 17 - 9 - 1010.5 1010.3 6.8
02/01:00am 22.5 25.7 21.3 93 0.8 WNW 6 - 3 - 1010.4 1010.2 6.8
02/12:30am 22.7 25.4 21.3 92 0.9 WNW 9 - 5 - 1010.5 1010.3 6.8
02/12:00am 22.7 25.9 21.2 91 1.0 WNW 6 - 3 - 1010.7 1010.5 6.8
 
Date/Time
EDT
Temp
°C
App
Temp
°C
Dew
Point
°C
Rel
Hum
%
Delta-T
°C
Wind Press
QNH
hPa
Press
MSL
hPa
Rain since
9am
mm
Dir  Spd
km/h
Gust
km/h
Spd
kts
Gust
kts
01/11:30pm 22.8 26.5 21.4 92 0.9 E 4 - 2 - 1010.8 1010.6 6.8
01/11:00pm 22.5 24.8 21.3 93 0.8 NE 11 - 6 - 1010.1 1009.9 6.8
01/10:30pm 22.4 25.6 21.2 93 0.8 ENE 6 - 3 - 1010.2 1010.0 6.8
01/10:00pm 22.2 23.7 21.2 94 0.7 NE 15 - 8 - 1010.7 1010.5 6.8
01/09:30pm 22.1 23.2 21.3 95 0.5 NNE 17 - 9 - 1010.2 1010.0 6.8
01/09:00pm 22.0 24.0 21.5 97 0.3 NE 13 - 7 - 1009.1 1008.9 6.8
01/08:30pm 21.6 23.0 21.1 97 0.3 NNE 15 - 8 - 1008.7 1008.6 6.8
01/08:00pm 21.8 22.8 21.1 96 0.5 E 17 - 9 - 1008.5 1008.4 6.6
01/07:30pm 22.6 25.0 21.6 94 0.7 ENE 11 - 6 - 1008.8 1008.7 6.0
01/07:29pm 22.7 - 21.7 94 0.7 - - - - - 1009.1 1008.9 6.0
01/07:07pm 23.5 - 20.8 85 1.8 - - - - - 1011.1 1010.9 1.0
01/07:00pm 23.9 24.2 20.8 83 2.0 S 20 - 11 - 1008.7 1008.6 0.4
01/06:37pm 23.6 - 19.9 80 2.4 - - - - - 1007.2 1007.1 0.0
01/06:30pm 23.4 23.7 19.5 79 2.5 NE 17 - 9 - 1004.6 1004.5 0.0
01/06:00pm 24.0 23.9 19.5 76 2.9 ENE 19 - 10 - 1005.0 1004.9 0.0
01/05:30pm 25.0 24.7 19.6 72 3.5 NE 20 - 11 - 1005.0 1004.9 0.0
01/05:00pm 26.5 25.5 19.6 66 4.5 ENE 24 - 13 - 1005.0 1004.9 0.0
01/04:30pm 27.0 26.3 19.6 64 4.8 NE 22 - 12 - 1005.8 1005.7 0.0
01/04:00pm 27.6 25.9 19.9 63 5.0 ENE 28 - 15 - 1006.3 1006.2 0.0
01/03:30pm 27.3 25.5 19.6 62 5.0 ENE 28 - 15 - 1006.8 1006.7 0.0
01/03:00pm 27.3 24.3 19.9 64 4.8 ENE 35 - 19 - 1007.5 1007.4 0.0
01/02:30pm 27.2 24.4 19.0 61 5.3 NE 32 - 17 - 1008.2 1008.1 0.0
01/02:00pm 27.4 25.4 20.0 64 4.8 NE 30 - 16 - 1008.6 1008.5 0.0
01/01:30pm 27.9 26.5 19.7 61 5.3 NE 26 - 14 - 1009.2 1009.0 0.0

Other formats

Comma delimited format used in spreadsheet applications
http://www.bom.gov.au/fwo/IDN60801/IDN60801.94768.axf

JavaScript Object Notation format (JSON) in row-major order
http://www.bom.gov.au/fwo/IDN60801/IDN60801.94768.json

Data quality

Most of these data are generated automatically and are frequently updated. Quality checks on data are not normally performed. It is possible for incorrect values to appear. Refer to information at About Latest Weather Observations and please check the disclaimer before using these data.